createdAt,value
2022-12-23T00:05:40.338Z,61.38
2022-12-23T00:15:42.089Z,54.72
2022-12-23T00:25:45.029Z,52.75
2022-12-23T00:35:47.445Z,53.13
2022-12-23T00:45:50.362Z,51.17
2022-12-23T00:55:52.783Z,48.33
2022-12-23T01:05:58.717Z,45.97
2022-12-23T01:16:02.283Z,46.80
2022-12-23T01:26:07.802Z,49.17
2022-12-23T01:36:11.115Z,48.65
2022-12-23T01:46:14.635Z,51.13
2022-12-23T01:56:24.181Z,50.58
2022-12-23T02:06:52.453Z,55.95
2022-12-23T02:17:04.586Z,55.70
2022-12-23T02:27:16.569Z,62.40
2022-12-23T02:37:45.929Z,62.67
2022-12-23T02:48:24.482Z,61.53
2022-12-23T02:58:32.455Z,62.30
2022-12-23T03:08:43.361Z,64.82
2022-12-23T03:19:04.170Z,62.78
2022-12-23T03:29:16.417Z,74.72
2022-12-23T03:39:29.079Z,72.93
2022-12-23T03:49:55.220Z,71.63
2022-12-23T03:59:58.080Z,78.28
2022-12-23T04:10:01.180Z,79.72
2022-12-23T04:20:04.592Z,80.57
2022-12-23T04:30:08.839Z,81.37
2022-12-23T04:40:10.611Z,68.45
2022-12-23T04:50:16.717Z,77.20
2022-12-23T05:00:18.744Z,71.40
2022-12-23T05:10:23.533Z,63.05
2022-12-23T05:20:25.179Z,69.22
2022-12-23T05:30:26.928Z,65.18
2022-12-23T05:40:32.406Z,61.05
2022-12-23T05:50:35.267Z,60.28
2022-12-23T06:00:37.187Z,57.17
2022-12-23T06:10:39.143Z,49.58
2022-12-23T06:20:41.066Z,50.33
2022-12-23T06:30:43.940Z,51.15
2022-12-23T06:40:47.121Z,53.33
2022-12-23T06:50:49.853Z,48.77
2022-12-23T07:00:51.962Z,47.90
2022-12-23T07:11:02.283Z,51.60
2022-12-23T07:21:04.652Z,48.22
2022-12-23T07:31:08.479Z,52.20
2022-12-23T07:41:12.792Z,44.88
2022-12-23T07:51:20.519Z,45.22
2022-12-23T08:01:23.708Z,44.05
2022-12-23T08:11:25.423Z,43.57
2022-12-23T08:21:27.106Z,41.40
2022-12-23T08:31:32.301Z,43.90
2022-12-23T08:41:39.407Z,47.30
2022-12-23T08:51:47.532Z,50.63
2022-12-23T09:01:50.659Z,53.63
2022-12-23T09:11:52.424Z,49.05
2022-12-23T09:21:55.360Z,49.90
2022-12-23T09:31:57.282Z,50.03
2022-12-23T09:42:36.709Z,47.75
2022-12-23T09:53:14.129Z,47.03
2022-12-23T10:03:34.506Z,50.80
2022-12-23T10:14:12.331Z,41.35
2022-12-23T10:24:20.347Z,46.25
2022-12-23T10:34:55.015Z,55.53
2022-12-23T10:55:31.310Z,53.08
2022-12-23T11:05:36.197Z,54.53
2022-12-23T11:15:40.527Z,56.43
2022-12-23T11:25:43.891Z,55.72
2022-12-23T11:35:45.762Z,54.90
2022-12-23T11:45:47.788Z,54.60
2022-12-23T11:56:11.490Z,53.40
2022-12-23T12:06:17.597Z,55.03
2022-12-23T12:16:31.186Z,55.88
2022-12-23T12:26:37.403Z,57.07
2022-12-23T12:37:30.223Z,55.13
2022-12-23T12:48:00.150Z,58.20
2022-12-23T12:58:16.386Z,56.00
2022-12-23T13:08:35.554Z,52.70
2022-12-23T13:19:03.982Z,52.13
2022-12-23T13:29:46.717Z,51.13
2022-12-23T13:40:25.981Z,54.67
2022-12-23T13:50:59.572Z,51.22
2022-12-23T14:01:10.587Z,49.10
2022-12-23T14:11:23.481Z,44.45
2022-12-23T14:21:50.059Z,53.55
2022-12-23T14:31:58.309Z,48.78
2022-12-23T14:42:35.810Z,45.80
2022-12-23T14:53:23.188Z,47.83
2022-12-23T15:03:48.339Z,45.03
2022-12-23T15:13:52.389Z,45.63
2022-12-23T15:24:03.900Z,42.45
2022-12-23T15:34:17.145Z,43.50
2022-12-23T15:44:26.439Z,44.87
2022-12-23T15:54:45.906Z,41.70
2022-12-23T16:05:10.206Z,41.92
2022-12-23T16:25:36.367Z,44.00
2022-12-23T16:35:42.805Z,43.00
2022-12-23T16:45:57.971Z,44.30
2022-12-23T16:56:12.556Z,42.58
2022-12-23T17:06:26.477Z,38.55
2022-12-23T17:16:34.429Z,38.95
2022-12-23T17:26:37.868Z,38.83
2022-12-23T17:36:47.564Z,37.27
2022-12-23T17:46:52.519Z,37.55
2022-12-23T17:56:57.890Z,34.90
2022-12-23T18:06:59.897Z,38.20
2022-12-23T18:17:17.435Z,38.03
2022-12-23T18:27:26.296Z,44.72
2022-12-23T18:37:29.050Z,47.42
2022-12-23T18:47:31.809Z,45.38
2022-12-23T18:57:34.162Z,46.75
2022-12-23T19:07:35.941Z,46.50
2022-12-23T19:17:38.218Z,48.13
2022-12-23T19:27:41.543Z,47.42
2022-12-23T19:37:48.369Z,45.27
2022-12-23T19:47:53.382Z,42.95
2022-12-23T19:58:02.268Z,42.05
2022-12-23T20:08:05.672Z,40.80
2022-12-23T20:18:08.477Z,41.33
2022-12-23T20:28:10.363Z,35.40
2022-12-23T20:38:14.392Z,42.35
2022-12-23T20:48:18.430Z,37.50
2022-12-23T20:58:43.849Z,34.65
2022-12-23T21:08:46.930Z,33.30
2022-12-23T21:18:53.375Z,37.57
2022-12-23T21:29:00.796Z,35.80
2022-12-23T21:39:05.166Z,36.78
2022-12-23T21:49:06.956Z,40.45
2022-12-23T21:59:14.595Z,39.65
2022-12-23T22:09:19.157Z,37.90
2022-12-23T22:19:21.001Z,37.47
2022-12-23T22:29:26.906Z,37.10
2022-12-23T22:42:12.471Z,36.33
2022-12-23T22:52:15.366Z,34.63
2022-12-23T23:02:17.213Z,36.00
2022-12-23T23:12:22.562Z,37.17
2022-12-23T23:22:25.509Z,34.72
2022-12-23T23:32:28.250Z,34.60
2022-12-23T23:42:30.128Z,33.90
2022-12-23T23:52:31.984Z,34.75
